METAR's Vizinhas

 

LPPT - Lisboa / Aeroporto da Portela, Portugal
Distance from station: SE 38km
Actualizado: 18/01/2019 05:00
Céu Limpo
Céu Limpo
 Vento de NNO
Vento: NNO 9 km/h
Temperatura: 8°C
Wind Chill: 6°C
Ponto de Orvalho: 5°C
Humidade: 82%
Barómetro: 1021 hPa
Resumo: Céu Limpo
Visibilidade: greater than 10 km
2019/01/18 05:00 LPPT 180500Z 33005KT CAVOK 08/05 Q1021
LPPR - Porto / Aeroporto Sá Carneiro
Distance from station: N 242km
Actualizado: 18/01/2019 05:00
Céu Limpo
Céu Limpo
 Vento de variável
Vento: variável 2 km/h
Temperatura: 4°C
Ponto de Orvalho: 2°C
Humidade: 87%
Barómetro: 1021 hPa
Resumo: Céu Limpo
Visibilidade: greater than 10 km
2019/01/18 05:00 LPPR 180500Z VRB01KT CAVOK 04/02 Q1021
 
LPMR - Monte Real / Base Aérea 5, Portugal
Distance from station: N 88km
Actualizado: 18/01/2019 05:00
Parcialmente nublado
Parcialmente nublado
 Vento de SSE
Vento: SSE 6 km/h
Temperatura: 2°C
Ponto de Orvalho: 2°C
Humidade: 100%
Barómetro: 1022 hPa
Nuvens: Parcialmente nublado
Visibilidade: 7 km
2019/01/18 05:00 LPMR 180500Z 16003KT 7000 NSC 02/02 Q1022
LPFR - Faro / Aeroporto
Distance from station: SSE 265km
Actualizado: 18/01/2019 05:00
Céu Limpo
Céu Limpo
 Vento de calm
Vento: Calmo
Temperatura: 6°C
Ponto de Orvalho: 4°C
Humidade: 87%
Barómetro: 1020 hPa
Resumo: Céu Limpo
Visibilidade: greater than 10 km
2019/01/18 05:00 LPFR 180500Z 00000KT CAVOK 06/04 Q1020
 
LPST - Sintra / Base Aérea 1, Portugal
Distance from station: S 30km
Actualizado: 17/01/2019 17:00
Desactualizado
Few Clouds
Few Clouds
 Vento de N
Vento: N 20 km/h
Temperatura: 11°C
Ponto de Orvalho: 4°C
Humidade: 62%
Barómetro: 1021 hPa
Nuvens: Few Clouds
Visibilidade: 10 km
Cloud details: Few Clouds 610 m
2019/01/17 17:00 LPST 171700Z 36011KT 9999 FEW020 11/04 Q1021
LPAR - Alverca / Base Aérea, Portugal
Distance from station: ESE 29km
Actualizado: 17/01/2019 17:00
Desactualizado
Few Clouds
Few Clouds
 Vento de N
Vento: N 22 km/h
Temperatura: 13°C
Ponto de Orvalho: 3°C
Humidade: 51%
Barómetro: 1020 hPa
Nuvens: Few Clouds
Visibilidade: 10 km
Cloud details: Few Clouds 762 m
2019/01/17 17:00 LPAR 171700Z 01012KT 9999 FEW025 13/03 Q1020